Ayden, North Carolina
Current Conditions -  °F | °C
As of 5:15 PM on Sunday 23 Nov 2014 (Local Time) from KPGV Reporting Station
Light Rain Light Rain  
Wind Chill: 16°   Ceiling: 1000
Heat Index: 16°   Visibility: 10mi
Dew Point: 15°   Wind: 7mph
Humidity: 94%   Direction: 150°SSE
Pressure: 30.03"   Gusts: NA
Location:  35.47°N, 77.42°W
Report Text: KPGV 232215Z AUTO 15006KT 10SM -RA BKN010 BKN016 16/15 A3003 RMK AO2 P0001
Loading
Personal Weather Stations






























Interactive Weather Map New forecast layout! Learn more

10-Day Weather Forecast

Advertisements
Track Severe Weather on mobile